sensor_id;sensor_type;location;lat;lon;timestamp;pressure;altitude;pressure_sealevel;temperature;humidity
36664;BME280;53333;51.976;20.144;2023-04-02T00:01:25;99222.97;;;8.33;70.67
36664;BME280;53333;51.976;20.144;2023-04-02T00:04:05;99228.63;;;8.27;70.60
36664;BME280;53333;51.976;20.144;2023-04-02T00:06:41;99226.91;;;8.26;70.64
36664;BME280;53333;51.976;20.144;2023-04-02T00:09:31;99223.38;;;8.25;70.86
36664;BME280;53333;51.976;20.144;2023-04-02T00:12:13;99240.13;;;8.27;70.94
36664;BME280;53333;51.976;20.144;2023-04-02T00:14:50;99242.25;;;8.21;70.87
36664;BME280;53333;51.976;20.144;2023-04-02T00:17:25;99239.69;;;8.19;70.93
36664;BME280;53333;51.976;20.144;2023-04-02T00:20:02;99245.09;;;8.17;70.88
36664;BME280;53333;51.976;20.144;2023-04-02T00:22:42;99241.56;;;8.17;71.03
36664;BME280;53333;51.976;20.144;2023-04-02T00:25:18;99247.75;;;8.17;71.02
36664;BME280;53333;51.976;20.144;2023-04-02T00:27:51;99245.09;;;8.17;70.94
36664;BME280;53333;51.976;20.144;2023-04-02T00:30:24;99253.13;;;8.16;71.00
36664;BME280;53333;51.976;20.144;2023-04-02T00:32:59;99254.88;;;8.17;71.11
36664;BME280;53333;51.976;20.144;2023-04-02T00:35:37;99255.72;;;8.17;71.14
36664;BME280;53333;51.976;20.144;2023-04-02T00:38:18;99268.16;;;8.17;70.86
36664;BME280;53333;51.976;20.144;2023-04-02T00:40:54;99257.78;;;8.12;70.99
36664;BME280;53333;51.976;20.144;2023-04-02T00:43:30;99259.56;;;8.12;71.00
36664;BME280;53333;51.976;20.144;2023-04-02T00:46:10;99265.75;;;8.12;70.99
36664;BME280;53333;51.976;20.144;2023-04-02T00:48:53;99271.16;;;8.11;70.97
36664;BME280;53333;51.976;20.144;2023-04-02T00:51:31;99267.69;;;8.09;71.06
36664;BME280;53333;51.976;20.144;2023-04-02T00:54:10;99277.56;;;8.07;70.88
36664;BME280;53333;51.976;20.144;2023-04-02T00:56:48;99274.28;;;8.02;70.90
36664;BME280;53333;51.976;20.144;2023-04-02T00:59:26;99275.38;;;7.97;70.95
36664;BME280;53333;51.976;20.144;2023-04-02T01:02:21;99272.63;;;7.99;71.13
36664;BME280;53333;51.976;20.144;2023-04-02T01:05:00;99276.41;;;7.95;71.17
36664;BME280;53333;51.976;20.144;2023-04-02T01:07:46;99281.66;;;7.96;71.22
36664;BME280;53333;51.976;20.144;2023-04-02T01:10:34;99287.22;;;7.92;71.00
36664;BME280;53333;51.976;20.144;2023-04-02T01:13:17;99278.63;;;7.87;71.18
36664;BME280;53333;51.976;20.144;2023-04-02T01:15:58;99284.09;;;7.84;71.11
36664;BME280;53333;51.976;20.144;2023-04-02T01:18:48;99284.16;;;7.82;71.17
36664;BME280;53333;51.976;20.144;2023-04-02T01:21:35;99285.25;;;7.78;71.28
36664;BME280;53333;51.976;20.144;2023-04-02T01:24:13;99286.34;;;7.74;71.17
36664;BME280;53333;51.976;20.144;2023-04-02T01:26:53;99286.09;;;7.78;70.94
36664;BME280;53333;51.976;20.144;2023-04-02T01:29:30;99287.66;;;7.65;71.08
36664;BME280;53333;51.976;20.144;2023-04-02T01:32:06;99295.94;;;7.59;71.18
36664;BME280;53333;51.976;20.144;2023-04-02T01:34:43;99301.41;;;7.56;71.30
36664;BME280;53333;51.976;20.144;2023-04-02T01:37:27;99301.63;;;7.51;71.52
36664;BME280;53333;51.976;20.144;2023-04-02T01:40:12;99309.75;;;7.48;71.48
36664;BME280;53333;51.976;20.144;2023-04-02T01:42:53;99302.91;;;7.44;71.45
36664;BME280;53333;51.976;20.144;2023-04-02T01:45:29;99305.63;;;7.42;71.51
36664;BME280;53333;51.976;20.144;2023-04-02T01:48:04;99308.34;;;7.41;71.56
36664;BME280;53333;51.976;20.144;2023-04-02T01:50:39;99314.75;;;7.37;71.61
36664;BME280;53333;51.976;20.144;2023-04-02T01:53:14;99316.69;;;7.33;71.57
36664;BME280;53333;51.976;20.144;2023-04-02T01:55:49;99323.91;;;7.31;71.54
36664;BME280;53333;51.976;20.144;2023-04-02T01:58:24;99328.41;;;7.29;71.58
36664;BME280;53333;51.976;20.144;2023-04-02T02:01:03;99327.63;;;7.27;71.78
36664;BME280;53333;51.976;20.144;2023-04-02T02:03:40;99326.91;;;7.23;71.74
36664;BME280;53333;51.976;20.144;2023-04-02T02:06:16;99334.09;;;7.21;71.89
36664;BME280;53333;51.976;20.144;2023-04-02T02:08:53;99329.72;;;7.20;71.80
36664;BME280;53333;51.976;20.144;2023-04-02T02:11:29;99326.28;;;7.18;71.86
36664;BME280;53333;51.976;20.144;2023-04-02T02:14:08;99331.59;;;7.18;71.82
36664;BME280;53333;51.976;20.144;2023-04-02T02:16:45;99339.63;;;7.17;72.01
36664;BME280;53333;51.976;20.144;2023-04-02T02:19:23;99333.38;;;7.18;71.82
36664;BME280;53333;51.976;20.144;2023-04-02T02:22:06;99343.06;;;7.19;71.82
36664;BME280;53333;51.976;20.144;2023-04-02T02:24:40;99336.03;;;7.18;71.81
36664;BME280;53333;51.976;20.144;2023-04-02T02:27:43;99340.25;;;7.22;71.81
36664;BME280;53333;51.976;20.144;2023-04-02T02:30:21;99344.06;;;7.16;71.74
36664;BME280;53333;51.976;20.144;2023-04-02T02:33:02;99349.38;;;7.16;71.64
36664;BME280;53333;51.976;20.144;2023-04-02T02:35:40;99348.53;;;7.16;71.51
36664;BME280;53333;51.976;20.144;2023-04-02T02:38:40;99346.66;;;7.18;71.56
36664;BME280;53333;51.976;20.144;2023-04-02T02:41:27;99354.13;;;7.09;71.58
36664;BME280;53333;51.976;20.144;2023-04-02T02:44:11;99356.84;;;7.08;71.69
36664;BME280;53333;51.976;20.144;2023-04-02T02:46:49;99356.13;;;7.04;71.60
36664;BME280;53333;51.976;20.144;2023-04-02T02:49:27;99362.44;;;7.02;71.69
36664;BME280;53333;51.976;20.144;2023-04-02T02:52:12;99369.50;;;7.03;71.66
36664;BME280;53333;51.976;20.144;2023-04-02T02:54:59;99366.91;;;7.01;71.67
36664;BME280;53333;51.976;20.144;2023-04-02T02:57:49;99367.81;;;7.00;71.65
36664;BME280;53333;51.976;20.144;2023-04-02T03:00:24;99370.47;;;7.00;71.30
36664;BME280;53333;51.976;20.144;2023-04-02T03:02:59;99375.72;;;7.02;71.60
36664;BME280;53333;51.976;20.144;2023-04-02T03:05:38;99377.44;;;7.03;71.62
36664;BME280;53333;51.976;20.144;2023-04-02T03:08:26;99378.38;;;7.02;71.49
36664;BME280;53333;51.976;20.144;2023-04-02T03:11:06;99387.50;;;6.96;71.54
36664;BME280;53333;51.976;20.144;2023-04-02T03:13:46;99392.03;;;6.94;71.60
36664;BME280;53333;51.976;20.144;2023-04-02T03:16:25;99393.88;;;6.92;71.59
36664;BME280;53333;51.976;20.144;2023-04-02T03:19:03;99388.44;;;6.95;71.75
36664;BME280;53333;51.976;20.144;2023-04-02T03:21:46;99393.59;;;6.98;71.46
36664;BME280;53333;51.976;20.144;2023-04-02T03:24:31;99390.88;;;7.00;71.35
36664;BME280;53333;51.976;20.144;2023-04-02T03:27:09;99395.84;;;7.07;70.95
36664;BME280;53333;51.976;20.144;2023-04-02T03:29:59;99398.34;;;6.91;71.06
36664;BME280;53333;51.976;20.144;2023-04-02T03:32:39;99401.13;;;6.88;71.20
36664;BME280;53333;51.976;20.144;2023-04-02T03:35:18;99396.75;;;6.87;71.14
36664;BME280;53333;51.976;20.144;2023-04-02T03:38:00;99403.78;;;6.88;71.29
36664;BME280;53333;51.976;20.144;2023-04-02T03:40:38;99411.75;;;6.88;71.23
36664;BME280;53333;51.976;20.144;2023-04-02T03:43:18;99412.53;;;6.90;71.04
36664;BME280;53333;51.976;20.144;2023-04-02T03:45:56;99416.13;;;6.89;71.15
36664;BME280;53333;51.976;20.144;2023-04-02T03:48:37;99413.63;;;6.86;71.13
36664;BME280;53333;51.976;20.144;2023-04-02T03:51:13;99430.66;;;6.81;71.25
36664;BME280;53333;51.976;20.144;2023-04-02T03:53:51;99425.56;;;6.76;71.36
36664;BME280;53333;51.976;20.144;2023-04-02T03:56:27;99431.81;;;6.75;71.33
36664;BME280;53333;51.976;20.144;2023-04-02T03:59:10;99425.75;;;6.71;71.38
36664;BME280;53333;51.976;20.144;2023-04-02T04:01:50;99434.75;;;6.69;71.42
36664;BME280;53333;51.976;20.144;2023-04-02T04:04:27;99436.59;;;6.67;71.46
36664;BME280;53333;51.976;20.144;2023-04-02T04:07:02;99436.75;;;6.64;71.47
36664;BME280;53333;51.976;20.144;2023-04-02T04:09:38;99450.16;;;6.61;71.50
36664;BME280;53333;51.976;20.144;2023-04-02T04:12:22;99454.63;;;6.59;71.53
36664;BME280;53333;51.976;20.144;2023-04-02T04:15:01;99455.72;;;6.54;71.41
36664;BME280;53333;51.976;20.144;2023-04-02T04:17:47;99455.72;;;6.54;71.55
36664;BME280;53333;51.976;20.144;2023-04-02T04:20:33;99467.38;;;6.50;71.54
36664;BME280;53333;51.976;20.144;2023-04-02T04:23:13;99469.25;;;6.48;71.48
36664;BME280;53333;51.976;20.144;2023-04-02T04:25:56;99475.34;;;6.50;71.57
36664;BME280;53333;51.976;20.144;2023-04-02T04:28:34;99488.66;;;6.49;71.49
36664;BME280;53333;51.976;20.144;2023-04-02T04:31:17;99484.38;;;6.46;71.53
36664;BME280;53333;51.976;20.144;2023-04-02T04:33:58;99488.94;;;6.43;71.57
36664;BME280;53333;51.976;20.144;2023-04-02T04:36:40;99495.19;;;6.42;71.36
36664;BME280;53333;51.976;20.144;2023-04-02T04:39:23;99498.75;;;6.41;71.42
36664;BME280;53333;51.976;20.144;2023-04-02T04:42:03;99493.56;;;6.38;71.36
36664;BME280;53333;51.976;20.144;2023-04-02T04:44:40;99496.28;;;6.36;71.34
36664;BME280;53333;51.976;20.144;2023-04-02T04:47:19;99494.78;;;6.30;71.29
36664;BME280;53333;51.976;20.144;2023-04-02T04:49:59;99492.19;;;6.29;71.22
36664;BME280;53333;51.976;20.144;2023-04-02T04:52:41;99499.25;;;6.28;71.29
36664;BME280;53333;51.976;20.144;2023-04-02T04:55:34;99501.84;;;6.30;71.08
36664;BME280;53333;51.976;20.144;2023-04-02T04:58:17;99506.41;;;6.26;71.25
36664;BME280;53333;51.976;20.144;2023-04-02T05:00:58;99507.41;;;6.24;71.29
36664;BME280;53333;51.976;20.144;2023-04-02T05:03:39;99512.03;;;6.18;71.26
36664;BME280;53333;51.976;20.144;2023-04-02T05:06:25;99517.53;;;6.14;71.15
36664;BME280;53333;51.976;20.144;2023-04-02T05:09:12;99528.25;;;6.11;71.38
36664;BME280;53333;51.976;20.144;2023-04-02T05:11:51;99524.69;;;6.12;71.61
36664;BME280;53333;51.976;20.144;2023-04-02T05:14:32;99529.88;;;6.15;71.52
36664;BME280;53333;51.976;20.144;2023-04-02T05:17:12;99531.72;;;6.13;71.50
36664;BME280;53333;51.976;20.144;2023-04-02T05:19:51;99544.81;;;6.17;71.38
36664;BME280;53333;51.976;20.144;2023-04-02T05:22:33;99544.59;;;6.22;71.44
36664;BME280;53333;51.976;20.144;2023-04-02T05:25:21;99543.63;;;6.25;71.32
36664;BME280;53333;51.976;20.144;2023-04-02T05:28:09;99542.69;;;6.26;71.29
36664;BME280;53333;51.976;20.144;2023-04-02T05:30:49;99551.44;;;6.28;71.46
36664;BME280;53333;51.976;20.144;2023-04-02T05:33:27;99554.97;;;6.28;71.30
36664;BME280;53333;51.976;20.144;2023-04-02T05:36:07;99554.09;;;6.28;71.18
36664;BME280;53333;51.976;20.144;2023-04-02T05:38:51;99561.31;;;6.24;71.29
36664;BME280;53333;51.976;20.144;2023-04-02T05:41:40;99565.97;;;6.19;71.25
36664;BME280;53333;51.976;20.144;2023-04-02T05:44:23;99570.44;;;6.17;71.29
36664;BME280;53333;51.976;20.144;2023-04-02T05:47:04;99576.63;;;6.17;71.54
36664;BME280;53333;51.976;20.144;2023-04-02T05:49:42;99573.28;;;6.12;71.34
36664;BME280;53333;51.976;20.144;2023-04-02T05:52:21;99577.78;;;6.10;71.57
36664;BME280;53333;51.976;20.144;2023-04-02T05:54:57;99567.34;;;6.06;71.57
36664;BME280;53333;51.976;20.144;2023-04-02T05:57:34;99580.66;;;6.04;71.73
36664;BME280;53333;51.976;20.144;2023-04-02T06:00:39;99580.66;;;6.04;71.46
36664;BME280;53333;51.976;20.144;2023-04-02T06:03:25;99589.41;;;6.06;71.67
36664;BME280;53333;51.976;20.144;2023-04-02T06:06:06;99588.44;;;6.09;71.37
36664;BME280;53333;51.976;20.144;2023-04-02T06:08:50;99593.63;;;6.12;71.35
36664;BME280;53333;51.976;20.144;2023-04-02T06:11:30;99589.13;;;6.14;71.36
36664;BME280;53333;51.976;20.144;2023-04-02T06:14:08;99606.03;;;6.11;71.32
36664;BME280;53333;51.976;20.144;2023-04-02T06:16:43;99605.28;;;6.08;71.22
36664;BME280;53333;51.976;20.144;2023-04-02T06:19:21;99619.53;;;6.05;71.21
36664;BME280;53333;51.976;20.144;2023-04-02T06:22:09;99615.09;;;6.06;71.17
36664;BME280;53333;51.976;20.144;2023-04-02T06:24:51;99623.22;;;6.01;71.25
36664;BME280;53333;51.976;20.144;2023-04-02T06:27:28;99632.09;;;6.00;71.15
36664;BME280;53333;51.976;20.144;2023-04-02T06:30:04;99640.91;;;6.00;71.24
36664;BME280;53333;51.976;20.144;2023-04-02T06:32:42;99632.00;;;6.03;71.21
36664;BME280;53333;51.976;20.144;2023-04-02T06:35:18;99634.44;;;6.08;71.16
36664;BME280;53333;51.976;20.144;2023-04-02T06:38:02;99639.44;;;6.15;71.29
36664;BME280;53333;51.976;20.144;2023-04-02T06:40:40;99647.16;;;6.22;71.04
36664;BME280;53333;51.976;20.144;2023-04-02T06:43:26;99651.34;;;6.29;70.83
36664;BME280;53333;51.976;20.144;2023-04-02T06:46:27;99659.16;;;6.32;70.60
36664;BME280;53333;51.976;20.144;2023-04-02T06:49:13;99661.81;;;6.32;70.69
36664;BME280;53333;51.976;20.144;2023-04-02T06:51:51;99673.34;;;6.31;70.25
36664;BME280;53333;51.976;20.144;2023-04-02T06:54:25;99673.53;;;6.26;70.32
36664;BME280;53333;51.976;20.144;2023-04-02T06:57:12;99680.69;;;6.24;70.29
36664;BME280;53333;51.976;20.144;2023-04-02T06:59:48;99677.41;;;6.17;70.29
36664;BME280;53333;51.976;20.144;2023-04-02T07:02:28;99677.47;;;6.16;70.13
36664;BME280;53333;51.976;20.144;2023-04-02T07:05:09;99688.97;;;6.15;70.22
36664;BME280;53333;51.976;20.144;2023-04-02T07:07:51;99693.50;;;6.13;70.16
36664;BME280;53333;51.976;20.144;2023-04-02T07:10:24;99695.25;;;6.12;70.15
36664;BME280;53333;51.976;20.144;2023-04-02T07:12:57;99702.41;;;6.10;70.10
36664;BME280;53333;51.976;20.144;2023-04-02T07:15:33;99708.63;;;6.09;70.15
36664;BME280;53333;51.976;20.144;2023-04-02T07:18:15;99711.28;;;6.09;70.11
36664;BME280;53333;51.976;20.144;2023-04-02T07:20:54;99716.69;;;6.06;69.88
36664;BME280;53333;51.976;20.144;2023-04-02T07:23:29;99719.59;;;6.00;70.03
36664;BME280;53333;51.976;20.144;2023-04-02T07:26:03;99721.50;;;5.95;70.12
36664;BME280;53333;51.976;20.144;2023-04-02T07:28:37;99725.03;;;5.95;70.13
36664;BME280;53333;51.976;20.144;2023-04-02T07:31:15;99727.75;;;5.94;70.09
36664;BME280;53333;51.976;20.144;2023-04-02T07:33:49;99726.00;;;5.93;69.97
36664;BME280;53333;51.976;20.144;2023-04-02T07:36:23;99729.56;;;5.92;70.14
36664;BME280;53333;51.976;20.144;2023-04-02T07:38:58;99736.66;;;5.91;70.15
36664;BME280;53333;51.976;20.144;2023-04-02T07:41:31;99738.41;;;5.92;70.26
36664;BME280;53333;51.976;20.144;2023-04-02T07:44:04;99734.88;;;5.92;70.20
36664;BME280;53333;51.976;20.144;2023-04-02T07:46:38;99737.63;;;5.89;70.08
36664;BME280;53333;51.976;20.144;2023-04-02T07:49:12;99745.47;;;5.92;70.31
36664;BME280;53333;51.976;20.144;2023-04-02T07:51:45;99741.81;;;5.96;70.23
36664;BME280;53333;51.976;20.144;2023-04-02T07:54:20;99754.06;;;6.00;70.21
36664;BME280;53333;51.976;20.144;2023-04-02T07:56:53;99763.56;;;6.06;70.22
36664;BME280;53333;51.976;20.144;2023-04-02T07:59:29;99761.66;;;6.09;70.20
36664;BME280;53333;51.976;20.144;2023-04-02T08:02:02;99772.16;;;6.12;70.32
36664;BME280;53333;51.976;20.144;2023-04-02T08:04:36;99775.59;;;6.16;70.05
36664;BME280;53333;51.976;20.144;2023-04-02T08:07:09;99787.84;;;6.18;69.95
36664;BME280;53333;51.976;20.144;2023-04-02T08:09:44;99778.88;;;6.23;69.86
36664;BME280;53333;51.976;20.144;2023-04-02T08:12:17;99786.72;;;6.26;69.81
36664;BME280;53333;51.976;20.144;2023-04-02T08:14:50;99783.97;;;6.29;69.87
36664;BME280;53333;51.976;20.144;2023-04-02T08:17:23;99788.28;;;6.31;69.80
36664;BME280;53333;51.976;20.144;2023-04-02T08:19:57;99789.56;;;6.45;69.45
36664;BME280;53333;51.976;20.144;2023-04-02T08:22:31;99787.13;;;6.39;69.62
36664;BME280;53333;51.976;20.144;2023-04-02T08:25:07;99786.13;;;6.41;69.60
36664;BME280;53333;51.976;20.144;2023-04-02T08:27:40;99792.16;;;6.46;69.50
36664;BME280;53333;51.976;20.144;2023-04-02T08:30:13;99790.06;;;6.54;69.52
36664;BME280;53333;51.976;20.144;2023-04-02T08:32:47;99789.00;;;6.59;69.39
36664;BME280;53333;51.976;20.144;2023-04-02T08:35:20;99800.41;;;6.62;69.24
36664;BME280;53333;51.976;20.144;2023-04-02T08:37:54;99800.28;;;6.65;69.23
36664;BME280;53333;51.976;20.144;2023-04-02T08:40:32;99808.06;;;6.70;69.07
36664;BME280;53333;51.976;20.144;2023-04-02T08:43:20;99801.81;;;6.71;69.06
36664;BME280;53333;51.976;20.144;2023-04-02T08:46:07;99809.66;;;6.74;68.82
36664;BME280;53333;51.976;20.144;2023-04-02T08:49:12;99816.72;;;6.75;68.68
36664;BME280;53333;51.976;20.144;2023-04-02T08:51:46;99821.16;;;6.75;68.61
36664;BME280;53333;51.976;20.144;2023-04-02T08:54:23;99824.81;;;6.72;68.46
36664;BME280;53333;51.976;20.144;2023-04-02T08:57:04;99830.34;;;6.66;68.36
36664;BME280;53333;51.976;20.144;2023-04-02T08:59:40;99828.59;;;6.65;67.93
36664;BME280;53333;51.976;20.144;2023-04-02T09:02:24;99826.88;;;6.64;68.33
36664;BME280;53333;51.976;20.144;2023-04-02T09:05:02;99832.25;;;6.62;68.11
36664;BME280;53333;51.976;20.144;2023-04-02T09:07:36;99840.22;;;6.62;67.97
36664;BME280;53333;51.976;20.144;2023-04-02T09:12:50;99851.53;;;6.67;67.97
36664;BME280;53333;51.976;20.144;2023-04-02T09:15:30;99860.34;;;6.68;67.92
36664;BME280;53333;51.976;20.144;2023-04-02T09:18:13;99847.06;;;6.68;67.74
36664;BME280;53333;51.976;20.144;2023-04-02T09:20:46;99851.75;;;6.61;67.74
36664;BME280;53333;51.976;20.144;2023-04-02T09:23:23;99864.31;;;6.56;67.62
36664;BME280;53333;51.976;20.144;2023-04-02T09:25:57;99863.53;;;6.52;67.74
36664;BME280;53333;51.976;20.144;2023-04-02T09:28:37;99874.09;;;6.54;67.51
36664;BME280;53333;51.976;20.144;2023-04-02T09:31:15;99879.38;;;6.55;67.51
36664;BME280;53333;51.976;20.144;2023-04-02T09:33:51;99881.28;;;6.52;67.21
36664;BME280;53333;51.976;20.144;2023-04-02T09:36:32;99888.44;;;6.50;67.26
36664;BME280;53333;51.976;20.144;2023-04-02T09:39:15;99887.50;;;6.51;66.95
36664;BME280;53333;51.976;20.144;2023-04-02T09:41:49;99890.28;;;6.48;66.77
36664;BME280;53333;51.976;20.144;2023-04-02T09:44:37;99890.09;;;6.52;66.98
36664;BME280;53333;51.976;20.144;2023-04-02T09:47:24;99898.56;;;6.64;67.06
36664;BME280;53333;51.976;20.144;2023-04-02T09:50:24;99901.91;;;6.69;66.84
36664;BME280;53333;51.976;20.144;2023-04-02T09:56:17;99908.91;;;6.70;66.28
36664;BME280;53333;51.976;20.144;2023-04-02T09:59:03;99913.38;;;6.69;66.44
36664;BME280;53333;51.976;20.144;2023-04-02T10:01:39;99913.69;;;6.60;66.14
36664;BME280;53333;51.976;20.144;2023-04-02T10:04:34;99920.00;;;6.58;66.24
36664;BME280;53333;51.976;20.144;2023-04-02T10:07:29;99922.50;;;6.62;66.30
36664;BME280;53333;51.976;20.144;2023-04-02T10:10:16;99930.41;;;6.64;66.17
36664;BME280;53333;51.976;20.144;2023-04-02T10:12:53;99924.16;;;6.65;65.90
36664;BME280;53333;51.976;20.144;2023-04-02T10:15:32;99932.91;;;6.67;65.78
36664;BME280;53333;51.976;20.144;2023-04-02T10:18:13;99936.47;;;6.67;65.78
36664;BME280;53333;51.976;20.144;2023-04-02T10:20:49;99936.47;;;6.67;65.48
36664;BME280;53333;51.976;20.144;2023-04-02T10:23:30;99932.88;;;6.68;65.49
36664;BME280;53333;51.976;20.144;2023-04-02T10:29:48;99938.25;;;6.90;65.21
36664;BME280;53333;51.976;20.144;2023-04-02T10:32:29;99933.28;;;7.05;64.90
36664;BME280;53333;51.976;20.144;2023-04-02T10:35:11;99947.91;;;7.17;64.77
36664;BME280;53333;51.976;20.144;2023-04-02T10:40:57;99949.16;;;7.30;64.63
36664;BME280;53333;51.976;20.144;2023-04-02T10:43:58;99951.53;;;7.38;64.26
36664;BME280;53333;51.976;20.144;2023-04-02T10:47:04;99956.91;;;7.36;64.05
36664;BME280;53333;51.976;20.144;2023-04-02T10:49:43;99958.94;;;7.30;64.02
36664;BME280;53333;51.976;20.144;2023-04-02T10:52:25;99959.16;;;7.23;63.96
36664;BME280;53333;51.976;20.144;2023-04-02T10:55:03;99969.91;;;7.20;64.09
36664;BME280;53333;51.976;20.144;2023-04-02T10:57:40;99971.66;;;7.21;63.99
36664;BME280;53333;51.976;20.144;2023-04-02T11:00:18;99972.50;;;7.22;63.84
36664;BME280;53333;51.976;20.144;2023-04-02T11:03:02;99983.13;;;7.22;63.79
36664;BME280;53333;51.976;20.144;2023-04-02T11:05:44;99980.47;;;7.22;63.74
36664;BME280;53333;51.976;20.144;2023-04-02T11:08:22;99983.25;;;7.19;63.81
36664;BME280;53333;51.976;20.144;2023-04-02T11:11:05;99989.38;;;7.21;63.74
36664;BME280;53333;51.976;20.144;2023-04-02T11:13:49;99995.56;;;7.21;63.88
36664;BME280;53333;51.976;20.144;2023-04-02T11:16:25;99995.50;;;7.23;63.66
36664;BME280;53333;51.976;20.144;2023-04-02T11:19:23;100006.06;;;7.24;63.60
36664;BME280;53333;51.976;20.144;2023-04-02T11:22:02;100008.13;;;7.16;63.40
36664;BME280;53333;51.976;20.144;2023-04-02T11:24:42;100021.53;;;7.13;63.50
36664;BME280;53333;51.976;20.144;2023-04-02T11:27:26;100021.59;;;7.12;63.71
36664;BME280;53333;51.976;20.144;2023-04-02T11:30:06;100026.19;;;7.06;63.69
36664;BME280;53333;51.976;20.144;2023-04-02T11:32:45;100028.91;;;7.05;63.58
36664;BME280;53333;51.976;20.144;2023-04-02T11:35:34;100038.78;;;7.01;63.56
36664;BME280;53333;51.976;20.144;2023-04-02T11:38:47;100038.84;;;7.00;63.67
36664;BME280;53333;51.976;20.144;2023-04-02T11:42:00;100037.28;;;6.94;63.64
36664;BME280;53333;51.976;20.144;2023-04-02T11:44:34;100046.44;;;6.85;63.73
36664;BME280;53333;51.976;20.144;2023-04-02T11:47:17;100042.09;;;6.83;63.99
36664;BME280;53333;51.976;20.144;2023-04-02T11:52:58;100052.78;;;6.81;63.82
36664;BME280;53333;51.976;20.144;2023-04-02T11:55:35;100055.34;;;6.83;63.77
36664;BME280;53333;51.976;20.144;2023-04-02T11:58:33;100057.06;;;6.85;63.74
36664;BME280;53333;51.976;20.144;2023-04-02T12:04:39;100072.03;;;6.88;63.89
36664;BME280;53333;51.976;20.144;2023-04-02T12:07:53;100071.38;;;6.81;63.95
36664;BME280;53333;51.976;20.144;2023-04-02T12:10:31;100071.63;;;6.73;63.96
36664;BME280;53333;51.976;20.144;2023-04-02T12:13:17;100086.72;;;6.71;64.00
36664;BME280;53333;51.976;20.144;2023-04-02T12:15:51;100085.09;;;6.67;64.01
36664;BME280;53333;51.976;20.144;2023-04-02T12:18:24;100083.41;;;6.65;64.23
36664;BME280;53333;51.976;20.144;2023-04-02T12:20:57;100092.31;;;6.64;64.44
36664;BME280;53333;51.976;20.144;2023-04-02T12:23:32;100099.44;;;6.62;64.42
36664;BME280;53333;51.976;20.144;2023-04-02T12:26:26;100096.72;;;6.63;64.48
36664;BME280;53333;51.976;20.144;2023-04-02T12:29:20;100099.19;;;6.69;64.76
36664;BME280;53333;51.976;20.144;2023-04-02T12:31:57;100097.13;;;6.78;64.61
36664;BME280;53333;51.976;20.144;2023-04-02T12:34:32;100104.94;;;6.82;64.43
36664;BME280;53333;51.976;20.144;2023-04-02T12:37:21;100103.00;;;6.87;64.50
36664;BME280;53333;51.976;20.144;2023-04-02T12:39:57;100105.66;;;6.87;64.39
36664;BME280;53333;51.976;20.144;2023-04-02T12:42:32;100103.84;;;6.89;64.31
36664;BME280;53333;51.976;20.144;2023-04-02T12:45:06;100118.88;;;6.89;64.29
36664;BME280;53333;51.976;20.144;2023-04-02T12:47:44;100117.00;;;6.93;64.26
36664;BME280;53333;51.976;20.144;2023-04-02T12:50:18;100114.25;;;6.96;64.53
36664;BME280;53333;51.976;20.144;2023-04-02T12:52:54;100124.69;;;7.00;64.48
36664;BME280;53333;51.976;20.144;2023-04-02T12:55:29;100121.88;;;7.05;64.45
36664;BME280;53333;51.976;20.144;2023-04-02T12:58:24;100126.97;;;7.11;64.56
36664;BME280;53333;51.976;20.144;2023-04-02T13:01:15;100127.84;;;7.12;64.38
36664;BME280;53333;51.976;20.144;2023-04-02T13:04:01;100131.28;;;7.15;64.57
36664;BME280;53333;51.976;20.144;2023-04-02T13:06:35;100140.34;;;7.08;64.58
36664;BME280;53333;51.976;20.144;2023-04-02T13:09:27;100133.34;;;7.07;64.30
36664;BME280;53333;51.976;20.144;2023-04-02T13:12:01;100137.25;;;6.95;64.50
36664;BME280;53333;51.976;20.144;2023-04-02T13:14:34;100142.00;;;6.85;64.43
36664;BME280;53333;51.976;20.144;2023-04-02T13:17:39;100146.63;;;6.80;64.82
36664;BME280;53333;51.976;20.144;2023-04-02T13:20:31;100144.97;;;6.76;64.78
36664;BME280;53333;51.976;20.144;2023-04-02T13:23:28;100154.78;;;6.74;64.97
36664;BME280;53333;51.976;20.144;2023-04-02T13:26:13;100155.03;;;6.66;65.15
36664;BME280;53333;51.976;20.144;2023-04-02T13:28:55;100158.53;;;6.67;65.15
36664;BME280;53333;51.976;20.144;2023-04-02T13:31:30;100158.66;;;6.64;65.09
36664;BME280;53333;51.976;20.144;2023-04-02T13:34:04;100165.84;;;6.60;65.23
36664;BME280;53333;51.976;20.144;2023-04-02T13:36:39;100178.44;;;6.53;65.18
36664;BME280;53333;51.976;20.144;2023-04-02T13:39:12;100177.69;;;6.50;65.35
36664;BME280;53333;51.976;20.144;2023-04-02T13:41:47;100179.47;;;6.49;65.23
36664;BME280;53333;51.976;20.144;2023-04-02T13:44:23;100185.88;;;6.42;65.37
36664;BME280;53333;51.976;20.144;2023-04-02T13:46:57;100185.97;;;6.39;65.47
36664;BME280;53333;51.976;20.144;2023-04-02T13:49:30;100192.09;;;6.41;65.48
36664;BME280;53333;51.976;20.144;2023-04-02T13:52:09;100194.69;;;6.43;65.33
36664;BME280;53333;51.976;20.144;2023-04-02T13:54:47;100195.69;;;6.40;65.35
36664;BME280;53333;51.976;20.144;2023-04-02T13:57:21;100207.19;;;6.39;65.08
36664;BME280;53333;51.976;20.144;2023-04-02T13:59:54;100208.09;;;6.38;64.98
36664;BME280;53333;51.976;20.144;2023-04-02T14:02:28;100207.38;;;6.33;65.07
36664;BME280;53333;51.976;20.144;2023-04-02T14:05:07;100216.38;;;6.29;64.82
36664;BME280;53333;51.976;20.144;2023-04-02T14:07:54;100212.16;;;6.22;64.94
36664;BME280;53333;51.976;20.144;2023-04-02T14:10:45;100218.47;;;6.17;64.81
36664;BME280;53333;51.976;20.144;2023-04-02T14:13:44;100212.53;;;6.08;64.92
36664;BME280;53333;51.976;20.144;2023-04-02T14:16:29;100219.91;;;5.98;64.88
36664;BME280;53333;51.976;20.144;2023-04-02T14:19:15;100221.88;;;5.90;64.92
36664;BME280;53333;51.976;20.144;2023-04-02T14:22:04;100231.91;;;5.78;64.83
36664;BME280;53333;51.976;20.144;2023-04-02T14:24:47;100238.34;;;5.70;64.79
36664;BME280;53333;51.976;20.144;2023-04-02T14:27:31;100245.63;;;5.61;64.70